sensor_id;sensor_type;location;lat;lon;timestamp;pressure;altitude;pressure_sealevel;temperature;humidity
46199;BME280;31928;52.104;10.030;2023-07-09T00:01:27;100839.25;;;26.01;42.09
46199;BME280;31928;52.104;10.030;2023-07-09T00:03:54;100835.97;;;25.99;42.00
46199;BME280;31928;52.104;10.030;2023-07-09T00:06:20;100836.59;;;25.96;41.58
46199;BME280;31928;52.104;10.030;2023-07-09T00:08:48;100848.69;;;25.95;42.08
46199;BME280;31928;52.104;10.030;2023-07-09T00:11:16;100853.69;;;25.93;42.15
46199;BME280;31928;52.104;10.030;2023-07-09T00:13:43;100850.41;;;25.91;42.09
46199;BME280;31928;52.104;10.030;2023-07-09T00:16:20;100856.34;;;25.98;40.44
46199;BME280;31928;52.104;10.030;2023-07-09T00:18:47;100852.13;;;25.87;41.86
46199;BME280;31928;52.104;10.030;2023-07-09T00:21:20;100846.03;;;25.90;41.50
46199;BME280;31928;52.104;10.030;2023-07-09T00:23:47;100842.88;;;25.83;41.69
46199;BME280;31928;52.104;10.030;2023-07-09T00:26:18;100839.59;;;25.81;41.92
46199;BME280;31928;52.104;10.030;2023-07-09T00:28:50;100849.78;;;25.81;42.36
46199;BME280;31928;52.104;10.030;2023-07-09T00:31:16;100839.41;;;25.78;42.28
46199;BME280;31928;52.104;10.030;2023-07-09T00:33:44;100840.81;;;25.75;42.21
46199;BME280;31928;52.104;10.030;2023-07-09T00:36:15;100851.19;;;25.78;41.59
46199;BME280;31928;52.104;10.030;2023-07-09T00:38:42;100846.06;;;25.72;42.28
46199;BME280;31928;52.104;10.030;2023-07-09T00:41:18;100849.63;;;25.72;42.08
46199;BME280;31928;52.104;10.030;2023-07-09T00:43:47;100848.56;;;25.68;42.64
46199;BME280;31928;52.104;10.030;2023-07-09T00:48:53;100838.72;;;25.67;42.17
46199;BME280;31928;52.104;10.030;2023-07-09T00:51:24;100843.75;;;25.60;42.71
46199;BME280;31928;52.104;10.030;2023-07-09T00:53:55;100843.75;;;25.60;42.45
46199;BME280;31928;52.104;10.030;2023-07-09T00:56:30;100842.97;;;25.60;41.91
46199;BME280;31928;52.104;10.030;2023-07-09T00:59:00;100849.63;;;25.54;42.54
46199;BME280;31928;52.104;10.030;2023-07-09T01:01:32;100839.03;;;25.47;42.75
46199;BME280;31928;52.104;10.030;2023-07-09T01:04:00;100839.94;;;25.43;42.74
46199;BME280;31928;52.104;10.030;2023-07-09T01:06:41;100839.25;;;25.51;41.63
46199;BME280;31928;52.104;10.030;2023-07-09T01:09:08;100840.81;;;25.39;43.13
46199;BME280;31928;52.104;10.030;2023-07-09T01:11:35;100836.44;;;25.38;43.17
46199;BME280;31928;52.104;10.030;2023-07-09T01:14:07;100834.84;;;25.37;42.67
46199;BME280;31928;52.104;10.030;2023-07-09T01:16:37;100828.81;;;25.35;42.42
46199;BME280;31928;52.104;10.030;2023-07-09T01:19:05;100832.72;;;25.29;43.06
46199;BME280;31928;52.104;10.030;2023-07-09T01:21:33;100825.09;;;25.26;43.27
46199;BME280;31928;52.104;10.030;2023-07-09T01:24:14;100829.63;;;25.35;41.50
46199;BME280;31928;52.104;10.030;2023-07-09T01:26:41;100822.44;;;25.21;43.35
46199;BME280;31928;52.104;10.030;2023-07-09T01:29:10;100821.94;;;25.19;42.76
46199;BME280;31928;52.104;10.030;2023-07-09T01:31:36;100821.41;;;25.17;42.69
46199;BME280;31928;52.104;10.030;2023-07-09T01:34:03;100824.75;;;25.14;42.87
46199;BME280;31928;52.104;10.030;2023-07-09T01:36:30;100825.84;;;25.13;43.01
46199;BME280;31928;52.104;10.030;2023-07-09T01:38:57;100830.81;;;25.11;43.25
46199;BME280;31928;52.104;10.030;2023-07-09T01:41:24;100828.66;;;25.08;42.94
46199;BME280;31928;52.104;10.030;2023-07-09T01:43:51;100824.28;;;25.07;43.20
46199;BME280;31928;52.104;10.030;2023-07-09T01:46:17;100822.13;;;25.04;42.60
46199;BME280;31928;52.104;10.030;2023-07-09T01:48:44;100828.69;;;25.03;43.00
46199;BME280;31928;52.104;10.030;2023-07-09T01:51:14;100829.81;;;25.02;42.83
46199;BME280;31928;52.104;10.030;2023-07-09T01:53:43;100829.59;;;24.98;43.57
46199;BME280;31928;52.104;10.030;2023-07-09T01:56:10;100821.69;;;24.97;42.98
46199;BME280;31928;52.104;10.030;2023-07-09T01:58:37;100819.50;;;24.94;43.12
46199;BME280;31928;52.104;10.030;2023-07-09T02:01:09;100826.13;;;24.93;42.88
46199;BME280;31928;52.104;10.030;2023-07-09T02:03:36;100830.53;;;24.89;43.19
46199;BME280;31928;52.104;10.030;2023-07-09T02:06:03;100828.09;;;24.87;42.95
46199;BME280;31928;52.104;10.030;2023-07-09T02:08:36;100825.16;;;24.84;43.09
46199;BME280;31928;52.104;10.030;2023-07-09T02:11:03;100829.00;;;24.83;43.09
46199;BME280;31928;52.104;10.030;2023-07-09T02:13:31;100819.44;;;24.81;43.34
46199;BME280;31928;52.104;10.030;2023-07-09T02:15:57;100830.16;;;24.77;43.53
46199;BME280;31928;52.104;10.030;2023-07-09T02:18:24;100834.31;;;24.75;43.25
46199;BME280;31928;52.104;10.030;2023-07-09T02:20:51;100829.13;;;24.73;43.09
46199;BME280;31928;52.104;10.030;2023-07-09T02:23:17;100826.69;;;24.72;43.47
46199;BME280;31928;52.104;10.030;2023-07-09T02:25:44;100834.38;;;24.70;44.01
46199;BME280;31928;52.104;10.030;2023-07-09T02:28:10;100835.78;;;24.67;44.04
46199;BME280;31928;52.104;10.030;2023-07-09T02:30:37;100832.22;;;24.67;43.60
46199;BME280;31928;52.104;10.030;2023-07-09T02:33:04;100829.78;;;24.65;43.76
46199;BME280;31928;52.104;10.030;2023-07-09T02:35:31;100832.00;;;24.63;43.78
46199;BME280;31928;52.104;10.030;2023-07-09T02:37:57;100831.47;;;24.61;43.60
46199;BME280;31928;52.104;10.030;2023-07-09T02:40:24;100838.06;;;24.60;43.84
46199;BME280;31928;52.104;10.030;2023-07-09T02:42:50;100831.25;;;24.58;43.69
46199;BME280;31928;52.104;10.030;2023-07-09T02:45:17;100828.81;;;24.56;43.59
46199;BME280;31928;52.104;10.030;2023-07-09T02:47:44;100829.09;;;24.55;43.66
46199;BME280;31928;52.104;10.030;2023-07-09T02:50:11;100823.91;;;24.53;43.68
46199;BME280;31928;52.104;10.030;2023-07-09T02:52:38;100822.56;;;24.51;43.13
46199;BME280;31928;52.104;10.030;2023-07-09T02:55:05;100821.72;;;24.50;43.58
46199;BME280;31928;52.104;10.030;2023-07-09T02:57:32;100830.25;;;24.49;43.62
46199;BME280;31928;52.104;10.030;2023-07-09T02:59:58;100826.16;;;24.46;43.16
46199;BME280;31928;52.104;10.030;2023-07-09T03:02:25;100828.41;;;24.44;43.35
46199;BME280;31928;52.104;10.030;2023-07-09T03:04:53;100825.94;;;24.43;43.09
46199;BME280;31928;52.104;10.030;2023-07-09T03:07:19;100837.50;;;24.40;43.64
46199;BME280;31928;52.104;10.030;2023-07-09T03:09:46;100835.03;;;24.38;43.55
46199;BME280;31928;52.104;10.030;2023-07-09T03:12:12;100838.06;;;24.37;43.49
46199;BME280;31928;52.104;10.030;2023-07-09T03:14:39;100833.97;;;24.34;43.92
46199;BME280;31928;52.104;10.030;2023-07-09T03:17:06;100846.03;;;24.33;43.55
46199;BME280;31928;52.104;10.030;2023-07-09T03:19:32;100841.66;;;24.32;43.45
46199;BME280;31928;52.104;10.030;2023-07-09T03:22:02;100849.38;;;24.30;43.50
46199;BME280;31928;52.104;10.030;2023-07-09T03:24:29;100847.72;;;24.29;43.94
46199;BME280;31928;52.104;10.030;2023-07-09T03:26:56;100851.56;;;24.28;43.64
46199;BME280;31928;52.104;10.030;2023-07-09T03:29:23;100842.84;;;24.26;43.55
46199;BME280;31928;52.104;10.030;2023-07-09T03:31:50;100846.69;;;24.25;43.98
46199;BME280;31928;52.104;10.030;2023-07-09T03:34:17;100851.34;;;24.25;43.37
46199;BME280;31928;52.104;10.030;2023-07-09T03:36:44;100847.78;;;24.24;43.54
46199;BME280;31928;52.104;10.030;2023-07-09T03:39:11;100852.75;;;24.22;43.79
46199;BME280;31928;52.104;10.030;2023-07-09T03:41:38;100859.31;;;24.21;43.39
46199;BME280;31928;52.104;10.030;2023-07-09T03:44:05;100856.88;;;24.20;43.99
46199;BME280;31928;52.104;10.030;2023-07-09T03:46:31;100857.97;;;24.19;43.72
46199;BME280;31928;52.104;10.030;2023-07-09T03:48:59;100859.38;;;24.17;43.86
46199;BME280;31928;52.104;10.030;2023-07-09T03:51:26;100862.91;;;24.17;43.95
46199;BME280;31928;52.104;10.030;2023-07-09T03:53:53;100863.22;;;24.16;44.07
46199;BME280;31928;52.104;10.030;2023-07-09T03:56:20;100861.56;;;24.15;43.90
46199;BME280;31928;52.104;10.030;2023-07-09T03:58:47;100863.22;;;24.16;43.74
46199;BME280;31928;52.104;10.030;2023-07-09T04:01:13;100859.97;;;24.14;44.20
46199;BME280;31928;52.104;10.030;2023-07-09T04:03:43;100854.47;;;24.14;43.79
46199;BME280;31928;52.104;10.030;2023-07-09T04:06:10;100860.78;;;24.14;44.06
46199;BME280;31928;52.104;10.030;2023-07-09T04:08:36;100864.91;;;24.12;43.82
46199;BME280;31928;52.104;10.030;2023-07-09T04:11:03;100864.91;;;24.12;44.09
46199;BME280;31928;52.104;10.030;2023-07-09T04:13:30;100860.53;;;24.11;43.83
46199;BME280;31928;52.104;10.030;2023-07-09T04:15:57;100855.03;;;24.11;44.23
46199;BME280;31928;52.104;10.030;2023-07-09T04:18:24;100864.41;;;24.10;44.32
46199;BME280;31928;52.104;10.030;2023-07-09T04:20:51;100857.78;;;24.11;44.08
46199;BME280;31928;52.104;10.030;2023-07-09T04:23:19;100860.53;;;24.11;44.14
46199;BME280;31928;52.104;10.030;2023-07-09T04:25:45;100855.03;;;24.11;44.34
46199;BME280;31928;52.104;10.030;2023-07-09T04:28:14;100850.41;;;24.11;44.28
46199;BME280;31928;52.104;10.030;2023-07-09T04:30:46;100857.19;;;24.19;43.60
46199;BME280;31928;52.104;10.030;2023-07-09T04:33:15;100854.47;;;24.14;44.15
46199;BME280;31928;52.104;10.030;2023-07-09T04:35:45;100859.97;;;24.14;44.28
46199;BME280;31928;52.104;10.030;2023-07-09T04:38:13;100859.97;;;24.14;44.45
46199;BME280;31928;52.104;10.030;2023-07-09T04:40:40;100856.69;;;24.12;44.29
46199;BME280;31928;52.104;10.030;2023-07-09T04:43:07;100863.00;;;24.12;44.61
46199;BME280;31928;52.104;10.030;2023-07-09T04:45:34;100867.66;;;24.12;44.53
46199;BME280;31928;52.104;10.030;2023-07-09T04:48:01;100867.66;;;24.12;44.33
46199;BME280;31928;52.104;10.030;2023-07-09T04:50:28;100871.47;;;24.11;44.09
46199;BME280;31928;52.104;10.030;2023-07-09T04:52:54;100869.03;;;24.09;44.60
46199;BME280;31928;52.104;10.030;2023-07-09T04:55:21;100873.72;;;24.09;45.01
46199;BME280;31928;52.104;10.030;2023-07-09T04:57:48;100863.56;;;24.09;44.55
46199;BME280;31928;52.104;10.030;2023-07-09T05:00:15;100866.28;;;24.09;44.53
46199;BME280;31928;52.104;10.030;2023-07-09T05:02:42;100872.63;;;24.10;44.70
46199;BME280;31928;52.104;10.030;2023-07-09T05:05:08;100875.34;;;24.10;44.93
46199;BME280;31928;52.104;10.030;2023-07-09T05:07:35;100871.47;;;24.11;45.10
46199;BME280;31928;52.104;10.030;2023-07-09T05:10:03;100873.13;;;24.12;45.23
46199;BME280;31928;52.104;10.030;2023-07-09T05:12:29;100871.47;;;24.11;44.76
46199;BME280;31928;52.104;10.030;2023-07-09T05:14:56;100873.72;;;24.09;45.40
46199;BME280;31928;52.104;10.030;2023-07-09T05:17:23;100872.06;;;24.08;45.23
46199;BME280;31928;52.104;10.030;2023-07-09T05:19:51;100877.53;;;24.08;44.63
46199;BME280;31928;52.104;10.030;2023-07-09T05:22:18;100870.44;;;24.07;45.47
46199;BME280;31928;52.104;10.030;2023-07-09T05:24:44;100874.25;;;24.06;45.67
46199;BME280;31928;52.104;10.030;2023-07-09T05:27:11;100873.16;;;24.07;45.85
46199;BME280;31928;52.104;10.030;2023-07-09T05:29:37;100872.88;;;24.08;45.87
46199;BME280;31928;52.104;10.030;2023-07-09T05:32:04;100875.06;;;24.11;45.97
46199;BME280;31928;52.104;10.030;2023-07-09T05:34:31;100873.66;;;24.14;45.85
46199;BME280;31928;52.104;10.030;2023-07-09T05:36:58;100877.47;;;24.18;46.34
46199;BME280;31928;52.104;10.030;2023-07-09T05:39:27;100884.28;;;24.20;46.97
46199;BME280;31928;52.104;10.030;2023-07-09T05:41:53;100884.00;;;24.21;46.42
46199;BME280;31928;52.104;10.030;2023-07-09T05:44:20;100877.41;;;24.22;46.35
46199;BME280;31928;52.104;10.030;2023-07-09T05:46:46;100877.91;;;24.24;46.78
46199;BME280;31928;52.104;10.030;2023-07-09T05:49:13;100884.25;;;24.25;46.40
46199;BME280;31928;52.104;10.030;2023-07-09T05:51:40;100878.47;;;24.26;46.15
46199;BME280;31928;52.104;10.030;2023-07-09T05:54:06;100884.44;;;24.28;46.49
46199;BME280;31928;52.104;10.030;2023-07-09T05:56:33;100881.41;;;24.30;46.63
46199;BME280;31928;52.104;10.030;2023-07-09T05:59:00;100879.75;;;24.34;46.43
46199;BME280;31928;52.104;10.030;2023-07-09T06:01:27;100886.56;;;24.36;46.15
46199;BME280;31928;52.104;10.030;2023-07-09T06:03:53;100889.56;;;24.40;46.08
46199;BME280;31928;52.104;10.030;2023-07-09T06:06:20;100887.66;;;24.40;46.51
46199;BME280;31928;52.104;10.030;2023-07-09T06:08:48;100896.09;;;24.44;46.54
46199;BME280;31928;52.104;10.030;2023-07-09T06:11:16;100904.59;;;24.47;46.97
46199;BME280;31928;52.104;10.030;2023-07-09T06:13:46;100901.78;;;24.52;46.51
46199;BME280;31928;52.104;10.030;2023-07-09T06:16:15;100901.75;;;24.57;46.83
46199;BME280;31928;52.104;10.030;2023-07-09T06:18:42;100901.69;;;24.62;47.29
46199;BME280;31928;52.104;10.030;2023-07-09T06:21:08;100896.66;;;24.69;46.97
46199;BME280;31928;52.104;10.030;2023-07-09T06:23:38;100895.50;;;24.75;46.54
46199;BME280;31928;52.104;10.030;2023-07-09T06:26:05;100896.75;;;24.82;46.98
46199;BME280;31928;52.104;10.030;2023-07-09T06:28:32;100893.66;;;24.89;45.65
46199;BME280;31928;52.104;10.030;2023-07-09T06:30:59;100889.75;;;24.95;45.91
46199;BME280;31928;52.104;10.030;2023-07-09T06:33:27;100891.81;;;25.03;45.66
46199;BME280;31928;52.104;10.030;2023-07-09T06:35:58;100887.13;;;25.08;45.12
46199;BME280;31928;52.104;10.030;2023-07-09T06:38:26;100884.81;;;25.15;45.66
46199;BME280;31928;52.104;10.030;2023-07-09T06:40:53;100897.09;;;25.23;45.65
46199;BME280;31928;52.104;10.030;2023-07-09T06:43:21;100896.13;;;25.32;45.44
46199;BME280;31928;52.104;10.030;2023-07-09T06:45:55;100902.19;;;25.47;44.44
46199;BME280;31928;52.104;10.030;2023-07-09T06:48:23;100891.75;;;25.49;44.36
46199;BME280;31928;52.104;10.030;2023-07-09T06:50:52;100895.44;;;25.58;44.30
46199;BME280;31928;52.104;10.030;2023-07-09T06:53:20;100898.84;;;25.69;43.79
46199;BME280;31928;52.104;10.030;2023-07-09T06:55:48;100895.94;;;25.79;44.27
46199;BME280;31928;52.104;10.030;2023-07-09T06:58:19;100896.63;;;25.89;43.48
46199;BME280;31928;52.104;10.030;2023-07-09T07:00:48;100900.81;;;26.00;43.67
46199;BME280;31928;52.104;10.030;2023-07-09T07:03:15;100888.31;;;26.07;43.93
46199;BME280;31928;52.104;10.030;2023-07-09T07:05:46;100894.47;;;26.18;43.75
46199;BME280;31928;52.104;10.030;2023-07-09T07:08:17;100901.38;;;26.29;43.38
46199;BME280;31928;52.104;10.030;2023-07-09T07:10:45;100901.25;;;26.39;43.75
46199;BME280;31928;52.104;10.030;2023-07-09T07:13:13;100893.34;;;26.51;42.46
46199;BME280;31928;52.104;10.030;2023-07-09T07:15:40;100898.31;;;26.62;43.15
46199;BME280;31928;52.104;10.030;2023-07-09T07:18:08;100897.00;;;26.73;43.17
46199;BME280;31928;52.104;10.030;2023-07-09T07:20:34;100897.59;;;26.83;43.16
46199;BME280;31928;52.104;10.030;2023-07-09T07:23:01;100896.81;;;26.96;43.50
46199;BME280;31928;52.104;10.030;2023-07-09T07:25:28;100895.97;;;27.09;42.83
46199;BME280;31928;52.104;10.030;2023-07-09T07:27:54;100894.31;;;27.22;42.35
46199;BME280;31928;52.104;10.030;2023-07-09T07:30:21;100886.34;;;27.33;41.96
46199;BME280;31928;52.104;10.030;2023-07-09T07:32:51;100891.81;;;27.47;41.75
46199;BME280;31928;52.104;10.030;2023-07-09T07:35:18;100894.88;;;27.59;41.17
46199;BME280;31928;52.104;10.030;2023-07-09T07:37:46;100898.66;;;27.71;42.05
46199;BME280;31928;52.104;10.030;2023-07-09T07:40:13;100893.13;;;27.85;41.89
46199;BME280;31928;52.104;10.030;2023-07-09T07:42:39;100896.94;;;27.97;41.49
46199;BME280;31928;52.104;10.030;2023-07-09T07:45:06;100896.06;;;28.10;41.29
46199;BME280;31928;52.104;10.030;2023-07-09T07:47:34;100898.25;;;28.21;41.57
46199;BME280;31928;52.104;10.030;2023-07-09T07:50:04;100901.25;;;28.33;41.21
46199;BME280;31928;52.104;10.030;2023-07-09T07:52:30;100894.81;;;28.46;41.06
46199;BME280;31928;52.104;10.030;2023-07-09T07:54:57;100890.34;;;28.58;41.00
46199;BME280;31928;52.104;10.030;2023-07-09T07:57:24;100885.34;;;28.69;40.89
46199;BME280;31928;52.104;10.030;2023-07-09T07:59:52;100886.38;;;28.81;40.67
46199;BME280;31928;52.104;10.030;2023-07-09T08:02:19;100889.34;;;28.93;40.34
46199;BME280;31928;52.104;10.030;2023-07-09T08:04:45;100883.22;;;29.05;40.24
46199;BME280;31928;52.104;10.030;2023-07-09T08:07:12;100887.78;;;29.17;40.16
46199;BME280;31928;52.104;10.030;2023-07-09T08:09:39;100886.31;;;29.28;40.08
46199;BME280;31928;52.104;10.030;2023-07-09T08:12:06;100884.91;;;29.39;38.98
46199;BME280;31928;52.104;10.030;2023-07-09T08:14:44;100893.53;;;29.55;40.53
46199;BME280;31928;52.104;10.030;2023-07-09T08:17:11;100889.28;;;29.66;38.96
46199;BME280;31928;52.104;10.030;2023-07-09T08:19:52;100878.72;;;29.84;39.76
46199;BME280;31928;52.104;10.030;2023-07-09T08:22:20;100878.25;;;29.91;38.70
46199;BME280;31928;52.104;10.030;2023-07-09T08:24:49;100876.41;;;30.03;37.96
46199;BME280;31928;52.104;10.030;2023-07-09T08:27:17;100879.34;;;30.15;38.06
46199;BME280;31928;52.104;10.030;2023-07-09T08:29:44;100884.66;;;30.29;38.00
46199;BME280;31928;52.104;10.030;2023-07-09T08:32:11;100889.19;;;30.41;37.77
46199;BME280;31928;52.104;10.030;2023-07-09T08:34:39;100883.81;;;30.53;37.83
46199;BME280;31928;52.104;10.030;2023-07-09T08:37:26;100880.97;;;30.70;38.08
46199;BME280;31928;52.104;10.030;2023-07-09T08:39:53;100883.47;;;30.84;37.63
46199;BME280;31928;52.104;10.030;2023-07-09T08:42:31;100884.69;;;31.03;38.24
46199;BME280;31928;52.104;10.030;2023-07-09T08:45:19;100879.72;;;31.17;37.57
46199;BME280;31928;52.104;10.030;2023-07-09T08:48:01;100887.44;;;31.32;37.37
46199;BME280;31928;52.104;10.030;2023-07-09T08:50:36;100879.03;;;31.49;37.40
46199;BME280;31928;52.104;10.030;2023-07-09T08:53:04;100868.00;;;31.61;36.63
46199;BME280;31928;52.104;10.030;2023-07-09T08:55:33;100876.16;;;31.77;37.52
46199;BME280;31928;52.104;10.030;2023-07-09T08:58:15;100867.66;;;31.94;36.67
46199;BME280;31928;52.104;10.030;2023-07-09T09:01:36;100866.72;;;32.11;36.68
46199;BME280;31928;52.104;10.030;2023-07-09T09:03:57;100862.44;;;32.25;36.52
46199;BME280;31928;52.104;10.030;2023-07-09T09:06:27;100861.94;;;32.43;35.57
46199;BME280;31928;52.104;10.030;2023-07-09T09:08:57;100865.19;;;32.57;35.27
46199;BME280;31928;52.104;10.030;2023-07-09T09:11:42;100870.75;;;32.81;36.00
46199;BME280;31928;52.104;10.030;2023-07-09T09:16:57;100871.22;;;33.07;34.36
46199;BME280;31928;52.104;10.030;2023-07-09T09:19:33;100872.94;;;33.23;33.82
46199;BME280;31928;52.104;10.030;2023-07-09T09:22:10;100867.00;;;33.37;33.76
46199;BME280;31928;52.104;10.030;2023-07-09T09:24:49;100860.38;;;33.53;33.91
46199;BME280;31928;52.104;10.030;2023-07-09T09:27:20;100863.94;;;33.65;32.92
46199;BME280;31928;52.104;10.030;2023-07-09T09:29:46;100861.56;;;33.79;33.47
46199;BME280;31928;52.104;10.030;2023-07-09T09:32:39;100856.72;;;34.04;34.65
46199;BME280;31928;52.104;10.030;2023-07-09T09:35:17;100862.94;;;34.13;33.28
46199;BME280;31928;52.104;10.030;2023-07-09T09:37:50;100864.91;;;34.27;33.63
46199;BME280;31928;52.104;10.030;2023-07-09T09:40:19;100860.78;;;34.37;32.00
46199;BME280;31928;52.104;10.030;2023-07-09T09:42:55;100868.00;;;34.53;32.70
46199;BME280;31928;52.104;10.030;2023-07-09T09:45:27;100871.63;;;34.69;32.36
46199;BME280;31928;52.104;10.030;2023-07-09T09:47:59;100859.19;;;34.82;31.42
46199;BME280;31928;52.104;10.030;2023-07-09T09:53:00;100860.69;;;35.10;29.98
46199;BME280;31928;52.104;10.030;2023-07-09T09:55:31;100866.22;;;35.26;30.42
46199;BME280;31928;52.104;10.030;2023-07-09T09:57:59;100866.88;;;35.38;29.95
46199;BME280;31928;52.104;10.030;2023-07-09T10:00:28;100870.84;;;35.52;29.67
46199;BME280;31928;52.104;10.030;2023-07-09T10:02:59;100869.16;;;35.67;29.96
46199;BME280;31928;52.104;10.030;2023-07-09T10:05:32;100869.44;;;35.81;29.75
46199;BME280;31928;52.104;10.030;2023-07-09T10:08:09;100876.13;;;35.95;29.89
46199;BME280;31928;52.104;10.030;2023-07-09T10:10:39;100873.97;;;36.07;27.33
46199;BME280;31928;52.104;10.030;2023-07-09T10:13:28;100863.59;;;36.27;28.73
46199;BME280;31928;52.104;10.030;2023-07-09T10:18:53;100858.72;;;36.43;28.80
46199;BME280;31928;52.104;10.030;2023-07-09T10:21:34;100861.13;;;36.44;28.41
46199;BME280;31928;52.104;10.030;2023-07-09T10:24:30;100858.97;;;36.57;29.11
46199;BME280;31928;52.104;10.030;2023-07-09T10:27:13;100862.31;;;36.65;28.35
46199;BME280;31928;52.104;10.030;2023-07-09T10:35:01;100862.75;;;36.90;25.17
46199;BME280;31928;52.104;10.030;2023-07-09T10:37:50;100855.78;;;37.06;26.87
46199;BME280;31928;52.104;10.030;2023-07-09T10:40:51;100848.03;;;37.22;28.04
46199;BME280;31928;52.104;10.030;2023-07-09T10:43:25;100855.25;;;37.23;25.41
46199;BME280;31928;52.104;10.030;2023-07-09T10:46:02;100850.94;;;37.29;24.85
46199;BME280;31928;52.104;10.030;2023-07-09T10:48:35;100845.03;;;37.34;24.61
46199;BME280;31928;52.104;10.030;2023-07-09T10:51:15;100845.88;;;37.38;25.79
46199;BME280;31928;52.104;10.030;2023-07-09T10:53:51;100844.38;;;37.44;25.59
46199;BME280;31928;52.104;10.030;2023-07-09T10:56:26;100853.22;;;37.49;26.23
46199;BME280;31928;52.104;10.030;2023-07-09T11:01:43;100839.81;;;37.65;23.39
46199;BME280;31928;52.104;10.030;2023-07-09T11:06:52;100837.56;;;37.74;23.57
46199;BME280;31928;52.104;10.030;2023-07-09T11:09:24;100838.44;;;37.82;24.92
46199;BME280;31928;52.104;10.030;2023-07-09T11:11:55;100840.91;;;37.87;23.47
46199;BME280;31928;52.104;10.030;2023-07-09T11:14:31;100834.19;;;37.94;23.49
46199;BME280;31928;52.104;10.030;2023-07-09T11:17:00;100837.09;;;38.01;22.60
46199;BME280;31928;52.104;10.030;2023-07-09T11:19:28;100837.53;;;38.07;22.59
46199;BME280;31928;52.104;10.030;2023-07-09T11:22:03;100840.47;;;38.17;23.65
46199;BME280;31928;52.104;10.030;2023-07-09T11:24:35;100837.72;;;38.24;24.69
46199;BME280;31928;52.104;10.030;2023-07-09T11:27:02;100831.78;;;38.29;23.42
46199;BME280;31928;52.104;10.030;2023-07-09T11:29:28;100827.88;;;38.37;22.61
46199;BME280;31928;52.104;10.030;2023-07-09T11:32:07;100833.56;;;38.51;24.24
46199;BME280;31928;52.104;10.030;2023-07-09T11:34:45;100826.44;;;38.57;23.46
46199;BME280;31928;52.104;10.030;2023-07-09T11:37:14;100809.63;;;38.57;23.04
46199;BME280;31928;52.104;10.030;2023-07-09T11:42:46;100811.44;;;38.89;25.55
46199;BME280;31928;52.104;10.030;2023-07-09T11:45:15;100818.69;;;38.90;22.62
46199;BME280;31928;52.104;10.030;2023-07-09T11:47:50;100811.19;;;39.05;24.18
46199;BME280;31928;52.104;10.030;2023-07-09T11:50:26;100812.44;;;39.14;24.85
46199;BME280;31928;52.104;10.030;2023-07-09T11:52:55;100809.69;;;39.24;23.07
46199;BME280;31928;52.104;10.030;2023-07-09T11:55:29;100814.16;;;39.36;22.93
46199;BME280;31928;52.104;10.030;2023-07-09T11:58:01;100813.84;;;39.51;23.47
46199;BME280;31928;52.104;10.030;2023-07-09T12:00:36;100809.06;;;39.62;22.77
46199;BME280;31928;52.104;10.030;2023-07-09T12:03:05;100806.31;;;39.76;22.33
46199;BME280;31928;52.104;10.030;2023-07-09T12:05:33;100804.78;;;39.89;22.38
46199;BME280;31928;52.104;10.030;2023-07-09T12:08:00;100795.94;;;40.01;21.60
46199;BME280;31928;52.104;10.030;2023-07-09T12:10:28;100795.97;;;40.15;23.35
46199;BME280;31928;52.104;10.030;2023-07-09T12:12:59;100789.19;;;40.26;21.55
46199;BME280;31928;52.104;10.030;2023-07-09T12:15:28;100800.44;;;40.37;21.67
46199;BME280;31928;52.104;10.030;2023-07-09T12:18:01;100793.59;;;40.44;20.75
46199;BME280;31928;52.104;10.030;2023-07-09T12:20:30;100794.81;;;40.50;20.51
46199;BME280;31928;52.104;10.030;2023-07-09T12:22:57;100784.34;;;40.54;21.06
46199;BME280;31928;52.104;10.030;2023-07-09T12:25:27;100783.13;;;40.59;21.08
46199;BME280;31928;52.104;10.030;2023-07-09T12:27:57;100782.34;;;40.65;21.24
46199;BME280;31928;52.104;10.030;2023-07-09T12:30:24;100779.53;;;40.69;21.98
46199;BME280;31928;52.104;10.030;2023-07-09T12:32:51;100766.28;;;40.76;21.39
46199;BME280;31928;52.104;10.030;2023-07-09T12:35:21;100770.28;;;40.82;21.38
46199;BME280;31928;52.104;10.030;2023-07-09T12:37:50;100761.41;;;40.91;21.20
46199;BME280;31928;52.104;10.030;2023-07-09T12:40:21;100766.22;;;40.97;21.92
46199;BME280;31928;52.104;10.030;2023-07-09T12:42:49;100764.59;;;41.03;21.23
46199;BME280;31928;52.104;10.030;2023-07-09T12:45:19;100763.38;;;41.07;21.03
46199;BME280;31928;52.104;10.030;2023-07-09T12:47:47;100759.38;;;41.12;20.72
46199;BME280;31928;52.104;10.030;2023-07-09T12:50:29;100761.34;;;41.22;22.03
46199;BME280;31928;52.104;10.030;2023-07-09T12:53:11;100757.72;;;41.21;21.69
46199;BME280;31928;52.104;10.030;2023-07-09T12:55:41;100754.88;;;41.25;21.94
46199;BME280;31928;52.104;10.030;2023-07-09T12:58:10;100763.69;;;41.34;22.20
46199;BME280;31928;52.104;10.030;2023-07-09T13:00:38;100747.56;;;41.41;21.37
46199;BME280;31928;52.104;10.030;2023-07-09T13:03:13;100750.72;;;41.54;21.50
46199;BME280;31928;52.104;10.030;2023-07-09T13:05:51;100749.88;;;41.64;21.89
46199;BME280;31928;52.104;10.030;2023-07-09T13:08:18;100752.75;;;41.57;20.47
46199;BME280;31928;52.104;10.030;2023-07-09T13:10:46;100744.69;;;41.55;20.38
46199;BME280;31928;52.104;10.030;2023-07-09T13:13:19;100740.28;;;41.54;20.85
46199;BME280;31928;52.104;10.030;2023-07-09T13:15:55;100737.06;;;41.56;21.06
46199;BME280;31928;52.104;10.030;2023-07-09T13:18:28;100727.41;;;41.53;20.11